Time;durP1;ratioP1;P1;durP2;ratioP2;P2;SDS_P1;SDS_P2;PMS_P1;PMS_P2;Temp;Humidity;BMP_temperature;BMP_pressure;BME280_temperature;BME280_humidity;BME280_pressure;Samples;Min_cycle;Max_cycle;Signal;HPM_P1;HPM_P2
2024/02/19 00:00:54;;;;;;;2.10;0.90;;;;;;;-1.44;100.00;102411.92;106008;1258;71827;-55
2024/02/19 00:03:23;;;;;;;2.90;1.20;;;;;;;-1.47;100.00;102408.97;106333;1271;61443;-55
2024/02/19 00:05:51;;;;;;;4.00;1.10;;;;;;;-1.51;100.00;102408.99;106023;1256;60275;-55
2024/02/19 00:08:19;;;;;;;3.40;1.20;;;;;;;-1.55;100.00;102401.08;106050;1258;72739;-55
2024/02/19 00:10:46;;;;;;;5.10;1.00;;;;;;;-1.60;100.00;102402.07;106101;1258;67804;-55
2024/02/19 00:13:14;;;;;;;4.20;1.20;;;;;;;-1.67;100.00;102397.36;106291;1256;73104;-55
2024/02/19 00:15:41;;;;;;;3.20;1.60;;;;;;;-1.72;100.00;102392.61;106039;1256;60515;-54
2024/02/19 00:18:09;;;;;;;3.40;1.00;;;;;;;-1.76;100.00;102390.30;105964;1259;60516;-54
2024/02/19 00:20:37;;;;;;;3.60;1.00;;;;;;;-1.78;100.00;102385.44;106186;1259;72419;-54
2024/02/19 00:23:04;;;;;;;2.60;1.00;;;;;;;-1.82;100.00;102376.47;106137;1258;65811;-53
2024/02/19 00:25:32;;;;;;;3.00;0.80;;;;;;;-1.85;100.00;102375.98;106123;1256;71464;-54
2024/02/19 00:27:59;;;;;;;4.70;1.20;;;;;;;-1.86;100.00;102372.75;105919;1256;60429;-54
2024/02/19 00:30:27;;;;;;;4.30;1.40;;;;;;;-1.89;100.00;102370.73;105950;1254;60460;-54
2024/02/19 00:32:54;;;;;;;5.60;1.10;;;;;;;-1.92;100.00;102370.61;106008;1259;72678;-55
2024/02/19 00:35:22;;;;;;;4.60;1.50;;;;;;;-1.94;100.00;102366.80;107818;1258;67130;-52
2024/02/19 00:37:50;;;;;;;4.40;1.50;;;;;;;-1.95;100.00;102365.91;106009;1256;72745;-52
2024/02/19 00:40:18;;;;;;;3.20;1.90;;;;;;;-1.94;100.00;102358.69;106043;1254;61681;-53
2024/02/19 00:42:46;;;;;;;4.60;1.40;;;;;;;-1.95;100.00;102359.90;105968;1255;60464;-53
2024/02/19 00:45:13;;;;;;;4.70;2.00;;;;;;;-1.98;100.00;102354.52;105950;1259;74375;-53
2024/02/19 00:47:41;;;;;;;6.80;2.40;;;;;;;-2.02;100.00;102351.48;106008;1260;65742;-53
2024/02/19 00:50:09;;;;;;;6.20;2.20;;;;;;;-2.07;100.00;102349.67;106077;1258;72633;-53
2024/02/19 00:52:38;;;;;;;10.30;2.70;;;;;;;-2.13;100.00;102345.90;108946;1257;58429;-53
2024/02/19 00:55:07;;;;;;;7.00;2.70;;;;;;;-2.21;100.00;102338.34;108882;1258;60345;-53
2024/02/19 00:57:34;;;;;;;11.80;4.80;;;;;;;-2.26;100.00;102335.64;107436;1258;73843;-53
2024/02/19 01:00:03;;;;;;;9.70;4.40;;;;;;;-2.31;100.00;102334.58;105972;1256;65247;-53
2024/02/19 01:02:31;;;;;;;11.20;5.40;;;;;;;-2.35;100.00;102324.36;106325;1256;72739;-53
2024/02/19 01:04:58;;;;;;;11.80;5.60;;;;;;;-2.42;100.00;102319.98;106031;1258;60579;-53
2024/02/19 01:07:26;;;;;;;17.00;7.10;;;;;;;-2.48;100.00;102315.83;108972;1254;58546;-54
2024/02/19 01:09:54;;;;;;;13.90;5.80;;;;;;;-2.52;100.00;102307.39;105937;1256;72691;-53
2024/02/19 01:12:21;;;;;;;10.50;5.00;;;;;;;-2.54;100.00;102308.71;105966;1257;66751;-54
2024/02/19 01:14:49;;;;;;;12.30;4.20;;;;;;;-2.55;100.00;102306.73;105819;1258;71107;-54
2024/02/19 01:17:16;;;;;;;14.10;4.10;;;;;;;-2.56;100.00;102312.48;107448;1256;59812;-54
2024/02/19 01:19:44;;;;;;;9.20;3.60;;;;;;;-2.57;100.00;102308.58;106005;1258;60637;-54
2024/02/19 01:22:12;;;;;;;10.70;4.50;;;;;;;-2.57;100.00;102307.16;109033;1255;72852;-54
2024/02/19 01:24:40;;;;;;;10.00;4.00;;;;;;;-2.57;100.00;102309.12;108975;1255;65783;-54
2024/02/19 01:27:08;;;;;;;11.00;4.00;;;;;;;-2.56;100.00;102311.11;108953;1254;71002;-54
2024/02/19 01:29:35;;;;;;;11.80;4.20;;;;;;;-2.54;100.00;102306.06;108959;1256;60770;-54
2024/02/19 01:32:03;;;;;;;9.90;4.70;;;;;;;-2.51;100.00;102305.15;108103;1258;60974;-54
2024/02/19 01:34:30;;;;;;;9.60;3.40;;;;;;;-2.50;100.00;102305.38;106579;1259;73884;-54
2024/02/19 01:36:58;;;;;;;13.10;5.70;;;;;;;-2.51;100.00;102307.63;106764;1256;66081;-54
2024/02/19 01:39:25;;;;;;;12.10;4.90;;;;;;;-2.52;100.00;102308.63;106030;1256;71066;-54
2024/02/19 01:41:53;;;;;;;13.80;6.10;;;;;;;-2.54;100.00;102309.92;105969;1261;60606;-55
2024/02/19 01:44:21;;;;;;;15.90;6.10;;;;;;;-2.57;100.00;102303.31;106246;1256;60470;-54
2024/02/19 01:46:48;;;;;;;12.60;6.10;;;;;;;-2.61;100.00;102301.14;106049;1259;74079;-54
2024/02/19 01:49:15;;;;;;;14.90;7.70;;;;;;;-2.65;100.00;102300.47;105960;1262;66101;-54
2024/02/19 01:51:43;;;;;;;14.90;6.40;;;;;;;-2.70;100.00;102299.03;106019;1259;72658;-54
2024/02/19 01:54:10;;;;;;;18.00;7.20;;;;;;;-2.73;100.00;102296.42;105839;1259;60335;-55
2024/02/19 01:56:39;;;;;;;21.20;7.60;;;;;;;-2.77;100.00;102296.40;105971;1256;60377;-55
2024/02/19 01:59:06;;;;;;;17.40;7.00;;;;;;;-2.83;100.00;102289.11;106070;1254;74177;-55
2024/02/19 02:01:34;;;;;;;16.50;6.20;;;;;;;-2.87;100.00;102274.85;105953;1256;66862;-56
2024/02/19 02:04:03;;;;;;;12.50;6.00;;;;;;;-2.88;100.00;102269.00;106244;1258;73241;-56
2024/02/19 02:06:30;;;;;;;11.30;4.60;;;;;;;-2.88;100.00;102263.58;106771;1256;60258;-55
2024/02/19 02:08:58;;;;;;;13.20;5.10;;;;;;;-2.86;100.00;102258.01;105974;1271;61616;-55
2024/02/19 02:11:26;;;;;;;13.80;4.40;;;;;;;-2.84;100.00;102257.77;106130;1259;73997;-55
2024/02/19 02:13:53;;;;;;;12.70;5.70;;;;;;;-2.81;100.00;102259.70;106054;1258;65751;-55
2024/02/19 02:16:25;;;;;;;12.10;5.20;;;;;;;-2.77;100.00;102261.09;105971;1259;73137;-55
2024/02/19 02:18:53;;;;;;;14.10;5.80;;;;;;;-2.73;100.00;102264.81;105998;1258;59603;-55
2024/02/19 02:21:21;;;;;;;11.70;5.20;;;;;;;-2.69;100.00;102262.69;106340;1257;60537;-55
2024/02/19 02:23:49;;;;;;;14.30;5.20;;;;;;;-2.67;100.00;102262.95;106010;1259;73990;-56
2024/02/19 02:26:16;;;;;;;13.30;6.10;;;;;;;-2.67;100.00;102258.02;105965;1254;66754;-56
2024/02/19 02:28:43;;;;;;;13.70;5.60;;;;;;;-2.66;100.00;102257.73;106017;1270;74237;-55
2024/02/19 02:31:11;;;;;;;14.30;6.20;;;;;;;-2.67;100.00;102252.05;105894;1262;60633;-55
2024/02/19 02:33:39;;;;;;;15.40;5.80;;;;;;;-2.68;100.00;102249.56;105944;1259;61283;-55
2024/02/19 02:36:10;;;;;;;11.90;5.40;;;;;;;-2.68;100.00;102249.58;105996;1254;72961;-55
2024/02/19 02:38:37;;;;;;;10.30;5.30;;;;;;;-2.68;100.00;102244.83;105908;1256;66029;-56
2024/02/19 02:41:04;;;;;;;13.20;6.30;;;;;;;-2.69;100.00;102240.20;106046;1258;72650;-56
2024/02/19 02:43:32;;;;;;;14.00;5.70;;;;;;;-2.69;100.00;102240.36;105994;1258;60569;-56
2024/02/19 02:45:59;;;;;;;11.80;5.90;;;;;;;-2.70;100.00;102239.06;106129;1258;60651;-56
2024/02/19 02:48:26;;;;;;;13.70;6.40;;;;;;;-2.73;100.00;102236.83;105984;1255;74019;-56
2024/02/19 02:50:54;;;;;;;13.90;5.00;;;;;;;-2.78;100.00;102238.02;106020;1259;67405;-56
2024/02/19 02:53:22;;;;;;;13.90;6.20;;;;;;;-2.84;100.00;102229.65;106016;1256;71780;-56
2024/02/19 02:55:49;;;;;;;12.20;5.10;;;;;;;-2.88;100.00;102222.09;106038;1259;63484;-55
2024/02/19 02:58:16;;;;;;;14.40;5.60;;;;;;;-2.91;100.00;102223.03;105953;1258;60497;-55
2024/02/19 03:00:44;;;;;;;10.90;4.20;;;;;;;-2.94;100.00;102222.72;105964;1257;73918;-56
2024/02/19 03:03:11;;;;;;;11.80;3.90;;;;;;;-2.96;100.00;102217.69;106039;1253;66132;-56
2024/02/19 03:05:39;;;;;;;13.50;5.70;;;;;;;-2.95;100.00;102223.88;105995;1257;72695;-56
2024/02/19 03:08:07;;;;;;;11.70;4.20;;;;;;;-2.94;100.00;102219.52;105916;1256;60937;-57
2024/02/19 03:10:34;;;;;;;10.80;4.50;;;;;;;-2.89;100.00;102218.39;106055;1256;61506;-55
2024/02/19 03:13:02;;;;;;;10.80;3.90;;;;;;;-2.90;100.00;102216.39;105952;1258;73299;-54
2024/02/19 03:15:30;;;;;;;8.10;4.40;;;;;;;-2.91;100.00;102217.23;106887;1259;67205;-55
2024/02/19 03:17:57;;;;;;;7.50;4.10;;;;;;;-2.91;100.00;102216.53;105972;1256;72662;-57
2024/02/19 03:20:25;;;;;;;12.60;4.90;;;;;;;-2.90;100.00;102216.58;105964;1256;60608;-57
2024/02/19 03:22:53;;;;;;;9.40;5.00;;;;;;;-2.87;100.00;102217.04;106011;1256;60578;-56
2024/02/19 03:25:20;;;;;;;10.00;4.10;;;;;;;-2.88;100.00;102214.18;106291;1258;73846;-55
2024/02/19 03:27:48;;;;;;;13.80;4.90;;;;;;;-2.90;100.00;102212.85;105996;1275;65942;-54
2024/02/19 03:30:16;;;;;;;14.10;5.70;;;;;;;-2.93;100.00;102212.56;106022;1259;72466;-58
2024/02/19 03:32:44;;;;;;;11.50;5.10;;;;;;;-2.99;100.00;102216.13;105958;1258;61017;-55
2024/02/19 03:35:12;;;;;;;11.50;5.00;;;;;;;-3.08;100.00;102211.89;106037;1254;60542;-55
2024/02/19 03:37:39;;;;;;;10.90;5.30;;;;;;;-3.16;100.00;102206.76;106019;1256;73407;-56
2024/02/19 03:40:08;;;;;;;14.00;5.50;;;;;;;-3.21;100.00;102207.92;106001;1260;65689;-55
2024/02/19 03:42:36;;;;;;;10.30;5.00;;;;;;;-3.25;100.00;102202.70;106106;1259;73046;-55
2024/02/19 03:45:07;;;;;;;9.70;3.30;;;;;;;-3.23;100.00;102198.20;108773;1255;60554;-56
2024/02/19 03:47:35;;;;;;;11.00;4.10;;;;;;;-3.19;100.00;102209.44;106286;1265;60462;-56
2024/02/19 03:50:03;;;;;;;9.00;3.30;;;;;;;-3.13;100.00;102210.75;105971;1258;74737;-55
2024/02/19 03:52:30;;;;;;;12.20;4.30;;;;;;;-3.09;100.00;102209.39;105991;1259;65737;-55
2024/02/19 03:54:58;;;;;;;11.90;3.90;;;;;;;-3.04;100.00;102217.51;105970;1260;72701;-56
2024/02/19 03:57:25;;;;;;;9.70;2.80;;;;;;;-3.00;100.00;102216.09;106079;1254;60447;-56
2024/02/19 03:59:52;;;;;;;6.90;3.30;;;;;;;-2.98;100.00;102210.39;106089;1258;60615;-56
2024/02/19 04:02:20;;;;;;;11.80;3.50;;;;;;;-2.97;100.00;102212.88;106189;1259;72787;-56
2024/02/19 04:04:47;;;;;;;10.90;4.10;;;;;;;-2.97;100.00;102213.24;106042;1263;66934;-55
2024/02/19 04:07:14;;;;;;;6.40;3.10;;;;;;;-2.97;100.00;102210.61;108947;1258;72866;-56
2024/02/19 04:09:42;;;;;;;12.30;5.10;;;;;;;-2.97;100.00;102209.02;108918;1256;60303;-55
2024/02/19 04:12:09;;;;;;;11.40;4.40;;;;;;;-2.97;100.00;102210.94;106717;1259;60603;-56
2024/02/19 04:14:40;;;;;;;7.10;3.00;;;;;;;-2.98;100.00;102204.61;105975;1258;75872;-55
2024/02/19 04:17:08;;;;;;;10.90;4.90;;;;;;;-2.99;100.00;102200.51;106113;1258;67516;-56
2024/02/19 04:19:35;;;;;;;7.50;3.60;;;;;;;-3.00;100.00;102196.25;106010;1259;73163;-56
2024/02/19 04:22:02;;;;;;;8.50;4.40;;;;;;;-3.03;100.00;102192.91;105948;1261;60832;-56
2024/02/19 04:24:30;;;;;;;12.60;4.50;;;;;;;-3.09;100.00;102190.93;109017;1254;58823;-56
2024/02/19 04:26:57;;;;;;;9.10;3.80;;;;;;;-3.17;100.00;102186.15;108917;1255;72621;-56
2024/02/19 04:29:24;;;;;;;11.50;4.60;;;;;;;-3.27;100.00;102180.95;106796;1259;67520;-56
2024/02/19 04:31:52;;;;;;;9.10;4.50;;;;;;;-3.33;100.00;102179.29;106004;1256;71334;-55
2024/02/19 04:34:19;;;;;;;7.40;3.90;;;;;;;-3.36;100.00;102178.26;105978;1258;60479;-56
2024/02/19 04:36:46;;;;;;;9.80;3.60;;;;;;;-3.37;100.00;102174.48;106591;1259;60419;-56
2024/02/19 04:39:13;;;;;;;8.30;3.00;;;;;;;-3.38;100.00;102175.36;105963;1263;72634;-56
2024/02/19 04:41:41;;;;;;;8.60;3.20;;;;;;;-3.37;100.00;102178.19;105969;1258;66885;-55
2024/02/19 04:44:08;;;;;;;6.90;3.60;;;;;;;-3.36;100.00;102182.31;106000;1259;70617;-56
2024/02/19 04:46:36;;;;;;;10.80;3.30;;;;;;;-3.33;100.00;102181.38;106057;1258;60588;-56
2024/02/19 04:49:04;;;;;;;8.00;4.10;;;;;;;-3.31;100.00;102180.79;106048;1265;60397;-56
2024/02/19 04:51:31;;;;;;;10.40;4.00;;;;;;;-3.33;100.00;102180.35;105988;1261;72637;-55
2024/02/19 04:53:59;;;;;;;9.40;4.10;;;;;;;-3.35;100.00;102181.27;106086;1256;67332;-54
2024/02/19 04:56:26;;;;;;;12.00;5.80;;;;;;;-3.37;100.00;102180.63;105992;1259;72771;-55
2024/02/19 04:58:54;;;;;;;12.30;4.80;;;;;;;-3.38;100.00;102176.60;106031;1261;60498;-55
2024/02/19 05:01:22;;;;;;;11.70;5.90;;;;;;;-3.36;100.00;102179.46;108197;1259;59434;-55
2024/02/19 05:03:50;;;;;;;16.20;7.00;;;;;;;-3.35;100.00;102178.68;106363;1259;73937;-55
2024/02/19 05:06:17;;;;;;;14.80;8.00;;;;;;;-3.35;100.00;102176.54;107164;1258;66353;-57
2024/02/19 05:08:45;;;;;;;16.90;8.40;;;;;;;-3.40;100.00;102177.17;106449;1268;72740;-56
2024/02/19 05:11:14;;;;;;;19.50;8.00;;;;;;;-3.45;100.00;102176.98;106435;1260;59605;-56
2024/02/19 05:13:42;;;;;;;17.90;8.20;;;;;;;-3.45;100.00;102180.50;106026;1259;61404;-56
2024/02/19 05:16:09;;;;;;;16.80;7.90;;;;;;;-3.46;100.00;102181.85;106064;1257;72698;-54
2024/02/19 05:18:37;;;;;;;18.60;7.60;;;;;;;-3.51;100.00;102176.70;106092;1264;65789;-54
2024/02/19 05:21:06;;;;;;;15.90;6.90;;;;;;;-3.51;100.00;102177.55;106044;1259;72668;-56
2024/02/19 05:23:33;;;;;;;15.80;6.30;;;;;;;-3.47;100.00;102175.12;106320;1274;61480;-56
2024/02/19 05:26:01;;;;;;;18.70;7.60;;;;;;;-3.41;100.00;102172.58;105985;1259;62391;-55
2024/02/19 05:28:32;;;;;;;13.80;6.40;;;;;;;-3.34;100.00;102179.59;106695;1257;72675;-56
2024/02/19 05:30:59;;;;;;;14.10;5.70;;;;;;;-3.26;100.00;102180.99;105911;1256;65830;-56
2024/02/19 05:33:28;;;;;;;12.10;6.30;;;;;;;-3.16;100.00;102187.08;106082;1261;73161;-56
2024/02/19 05:35:55;;;;;;;15.10;6.40;;;;;;;-3.05;100.00;102194.10;106516;1258;61146;-56
2024/02/19 05:38:22;;;;;;;17.40;9.20;;;;;;;-2.91;100.00;102194.73;106133;1259;60972;-56
2024/02/19 05:40:50;;;;;;;20.10;9.50;;;;;;;-2.76;100.00;102205.41;106183;1259;72715;-56
2024/02/19 05:43:17;;;;;;;18.40;8.10;;;;;;;-2.60;100.00;102215.25;106096;1259;67027;-56
2024/02/19 05:45:44;;;;;;;16.00;7.10;;;;;;;-2.43;100.00;102223.94;106076;1259;70505;-56
2024/02/19 05:48:12;;;;;;;17.90;8.40;;;;;;;-2.29;100.00;102232.10;106081;1256;60522;-56
2024/02/19 05:50:39;;;;;;;12.50;6.60;;;;;;;-2.18;100.00;102244.54;106081;1275;61366;-55
2024/02/19 05:53:07;;;;;;;13.80;7.70;;;;;;;-2.07;100.00;102246.94;106017;1261;72719;-55
2024/02/19 05:55:35;;;;;;;25.80;11.60;;;;;;;-1.97;100.00;102252.29;105999;1254;68434;-55
2024/02/19 05:58:02;;;;;;;17.60;9.60;;;;;;;-1.91;100.00;102257.48;106124;1266;71428;-55
2024/02/19 06:00:30;;;;;;;17.70;9.20;;;;;;;-1.86;100.00;102261.73;105933;1260;60452;-55
2024/02/19 06:03:03;;;;;;;31.00;13.30;;;;;;;-1.81;100.00;102264.92;106050;1258;60394;-56
2024/02/19 06:05:30;;;;;;;30.70;12.20;;;;;;;-1.79;100.00;102270.65;106239;1259;73726;-56
2024/02/19 06:07:58;;;;;;;27.20;12.40;;;;;;;-1.77;100.00;102273.92;106017;1265;67495;-57
2024/02/19 06:10:25;;;;;;;29.20;13.20;;;;;;;-1.73;100.00;102277.98;106048;1260;72722;-56
2024/02/19 06:12:52;;;;;;;24.30;10.80;;;;;;;-1.70;100.00;102277.37;105993;1260;60540;-56
2024/02/19 06:15:20;;;;;;;30.30;12.70;;;;;;;-1.70;100.00;102279.30;105912;1269;60461;-56
2024/02/19 06:17:47;;;;;;;26.70;10.90;;;;;;;-1.71;100.00;102282.98;105947;1261;73819;-56
2024/02/19 06:20:15;;;;;;;21.40;9.60;;;;;;;-1.70;100.00;102280.70;106176;1261;65812;-56
2024/02/19 06:22:43;;;;;;;17.40;8.50;;;;;;;-1.66;100.00;102287.75;105941;1259;71489;-56
2024/02/19 06:25:10;;;;;;;17.40;7.50;;;;;;;-1.59;100.00;102297.38;106022;1265;63156;-56
2024/02/19 06:27:38;;;;;;;15.30;6.80;;;;;;;-1.52;100.00;102300.14;105985;1268;60902;-56
2024/02/19 06:32:42;;;;;;;6.40;2.60;;;;;;;-1.34;100.00;102386.10;102706;1294;600189;-55
2024/02/19 06:35:09;;;;;;;8.30;3.70;;;;;;;-1.29;100.00;102430.71;105440;1266;59744;-55
2024/02/19 06:37:37;;;;;;;7.80;1.90;;;;;;;-1.24;100.00;102416.48;105877;1265;59907;-55
2024/02/19 06:40:06;;;;;;;6.70;1.40;;;;;;;-1.20;100.00;102408.77;105506;1260;70070;-55
2024/02/19 06:42:34;;;;;;;3.60;1.10;;;;;;;-1.15;100.00;102404.72;106523;1265;67112;-55
2024/02/19 06:45:01;;;;;;;4.80;1.20;;;;;;;-1.14;100.00;102402.12;105675;1259;72664;-56
2024/02/19 06:47:28;;;;;;;2.70;1.10;;;;;;;-1.14;100.00;102395.77;105625;1262;318155;-54
2024/02/19 06:49:56;;;;;;;5.30;1.20;;;;;;;-1.12;100.00;102394.97;105834;1262;60133;-54
2024/02/19 06:52:23;;;;;;;1.90;1.00;;;;;;;-1.10;100.00;102389.92;105828;1262;71471;-54
2024/02/19 06:54:51;;;;;;;5.20;1.60;;;;;;;-1.08;100.00;102388.39;108875;1260;66757;-55
2024/02/19 06:57:18;;;;;;;6.80;1.50;;;;;;;-1.08;100.00;102384.88;107825;1256;73127;-55
2024/02/19 06:59:45;;;;;;;5.10;1.50;;;;;;;-1.08;100.00;102379.77;105799;1259;60550;-55
2024/02/19 07:02:13;;;;;;;2.90;1.00;;;;;;;-1.09;100.00;102378.33;108702;1256;60082;-55
2024/02/19 07:04:40;;;;;;;4.60;1.40;;;;;;;-1.09;100.00;102378.50;108714;1256;73608;-55
2024/02/19 07:07:11;;;;;;;4.20;1.50;;;;;;;-1.08;100.00;102378.20;108740;1257;67044;-55
2024/02/19 07:09:40;;;;;;;4.00;1.60;;;;;;;-1.07;100.00;102376.30;108812;1259;72683;-55
2024/02/19 07:12:08;;;;;;;4.30;1.40;;;;;;;-1.04;100.00;102372.01;108722;1257;59716;-55
2024/02/19 07:14:35;;;;;;;3.40;1.20;;;;;;;-1.03;100.00;102368.73;108703;1259;60099;-55
2024/02/19 07:17:02;;;;;;;4.30;1.60;;;;;;;-1.00;100.00;102366.54;107581;1259;73048;-55
2024/02/19 07:19:30;;;;;;;3.00;0.90;;;;;;;-0.95;100.00;102365.50;108784;1258;67592;-55
2024/02/19 07:21:57;;;;;;;4.00;1.00;;;;;;;-0.91;100.00;102367.44;108722;1258;70243;-54
2024/02/19 07:24:26;;;;;;;5.70;1.40;;;;;;;-0.85;100.00;102374.05;105824;1259;60552;-55
2024/02/19 07:26:54;;;;;;;3.60;1.00;;;;;;;-0.79;100.00;102374.11;106449;1262;59616;-55
2024/02/19 07:29:22;;;;;;;6.90;1.60;;;;;;;-0.73;100.00;102372.90;105877;1262;73578;-55
2024/02/19 07:31:51;;;;;;;2.50;0.90;;;;;;;-0.71;100.00;102374.92;106788;1259;67457;-55
2024/02/19 07:34:18;;;;;;;6.10;0.80;;;;;;;-0.70;100.00;102378.84;105900;1259;72126;-56
2024/02/19 07:36:46;;;;;;;5.50;1.00;;;;;;;-0.65;100.00;102375.50;106233;1258;59757;-56
2024/02/19 07:39:14;;;;;;;2.30;0.90;;;;;;;-0.63;100.00;102375.74;106295;1262;59621;-55
2024/02/19 07:41:41;;;;;;;1.20;0.70;;;;;;;-0.61;100.00;102373.56;105846;1259;73154;-55
2024/02/19 07:44:08;;;;;;;1.50;0.70;;;;;;;-0.57;100.00;102372.47;105722;1262;66808;-56
2024/02/19 07:46:35;;;;;;;3.00;0.90;;;;;;;-0.50;100.00;102380.85;105847;1273;71873;-57
2024/02/19 07:49:03;;;;;;;3.00;1.20;;;;;;;-0.43;100.00;102385.54;105836;1260;59765;-57
2024/02/19 07:51:30;;;;;;;3.30;1.00;;;;;;;-0.35;100.00;102388.66;105800;1259;59958;-58
2024/02/19 07:53:58;;;;;;;2.00;0.80;;;;;;;-0.27;100.00;102390.71;105938;1262;73480;-57
2024/02/19 07:56:25;;;;;;;1.60;0.50;;;;;;;-0.19;100.00;102399.00;105853;1262;66800;-57
2024/02/19 07:58:53;;;;;;;0.70;0.40;;;;;;;-0.12;100.00;102398.71;105799;1262;72731;-59
2024/02/19 08:01:20;;;;;;;2.90;0.50;;;;;;;-0.07;100.00;102397.14;105786;1262;59704;-57
2024/02/19 08:03:47;;;;;;;1.60;0.30;;;;;;;-0.01;100.00;102399.50;105905;1273;59689;-57
2024/02/19 08:06:15;;;;;;;2.70;0.50;;;;;;;0.04;100.00;102406.70;105987;1262;73533;-57
2024/02/19 08:08:43;;;;;;;1.60;0.50;;;;;;;0.09;100.00;102406.70;105936;1256;70124;-57
2024/02/19 08:11:10;;;;;;;1.60;0.50;;;;;;;0.09;100.00;102404.23;105826;1258;70780;-57
2024/02/19 08:13:37;;;;;;;1.00;0.50;;;;;;;0.05;100.00;102404.98;105753;1262;59728;-58
2024/02/19 08:16:05;;;;;;;4.10;0.50;;;;;;;0.06;100.00;102407.85;106323;1262;59961;-56
2024/02/19 08:18:32;;;;;;;0.80;0.60;;;;;;;0.07;100.00;102411.42;105850;1257;71855;-56
2024/02/19 08:21:00;;;;;;;2.00;0.50;;;;;;;0.03;100.00;102410.04;105789;1262;65988;-58
2024/02/19 08:23:27;;;;;;;0.70;0.40;;;;;;;0.08;100.00;102408.42;105788;1263;72841;-56
2024/02/19 08:25:55;;;;;;;0.50;0.40;;;;;;;0.13;100.00;102410.58;105724;1260;60544;-56
2024/02/19 08:28:22;;;;;;;0.40;0.20;;;;;;;0.22;100.00;102419.73;105763;1260;60078;-55
2024/02/19 08:30:50;;;;;;;0.80;0.30;;;;;;;0.31;100.00;102420.26;105689;1265;70727;-57
2024/02/19 08:33:17;;;;;;;1.10;0.30;;;;;;;0.33;100.00;102420.48;107067;1256;64950;-56
2024/02/19 08:35:44;;;;;;;0.20;0.10;;;;;;;0.33;100.00;102420.34;105944;1263;72914;-55
2024/02/19 08:38:12;;;;;;;0.30;0.10;;;;;;;0.35;100.00;102418.07;106051;1263;59734;-57
2024/02/19 08:40:39;;;;;;;0.30;0.10;;;;;;;0.37;100.00;102420.09;105925;1261;60251;-55
2024/02/19 08:43:10;;;;;;;0.20;0.10;;;;;;;0.43;100.00;102428.23;106130;1262;73580;-54
2024/02/19 08:45:39;;;;;;;1.80;0.10;;;;;;;0.46;100.00;102427.45;106118;1262;65890;-55
2024/02/19 08:48:07;;;;;;;0.30;0.10;;;;;;;0.51;100.00;102429.23;105861;1260;73248;-56
2024/02/19 08:50:35;;;;;;;0.30;0.10;;;;;;;0.60;100.00;102436.10;106217;1263;59686;-55
2024/02/19 08:53:03;;;;;;;0.40;0.10;;;;;;;0.68;100.00;102442.22;105922;1263;60703;-56
2024/02/19 08:55:31;;;;;;;0.70;0.20;;;;;;;0.76;100.00;102446.58;105934;1263;73534;-55
2024/02/19 08:57:58;;;;;;;0.20;0.20;;;;;;;0.83;100.00;102449.98;105904;1268;65640;-56
2024/02/19 09:00:26;;;;;;;0.70;0.20;;;;;;;0.90;100.00;102455.89;105900;1259;71556;-55
2024/02/19 09:02:56;;;;;;;0.50;0.20;;;;;;;0.95;100.00;102463.63;105934;1262;60121;-55
2024/02/19 09:05:23;;;;;;;0.20;0.10;;;;;;;0.95;100.00;102458.33;105924;1257;60626;-55
2024/02/19 09:07:51;;;;;;;0.40;0.10;;;;;;;1.00;100.00;102458.34;105816;1261;73119;-57
2024/02/19 09:10:19;;;;;;;0.20;0.10;;;;;;;1.06;100.00;102463.84;105900;1262;66302;-59
2024/02/19 09:12:46;;;;;;;0.40;0.10;;;;;;;1.11;100.00;102467.91;105804;1262;71764;-56
2024/02/19 09:15:14;;;;;;;0.30;0.10;;;;;;;1.18;100.00;102470.42;105986;1275;59731;-54
2024/02/19 09:17:41;;;;;;;1.70;0.10;;;;;;;1.23;100.00;102470.05;105998;1258;60091;-55
2024/02/19 09:20:09;;;;;;;0.40;0.10;;;;;;;1.28;100.00;102478.36;105921;1273;73199;-55
2024/02/19 09:22:37;;;;;;;0.40;0.10;;;;;;;1.32;100.00;102479.23;105920;1260;66064;-56
2024/02/19 09:25:05;;;;;;;0.40;0.10;;;;;;;1.36;100.00;102480.92;105822;1260;71468;-55
2024/02/19 09:27:32;;;;;;;0.20;0.10;;;;;;;1.42;100.00;102479.36;105868;1260;59764;-54
2024/02/19 09:29:59;;;;;;;0.20;0.10;;;;;;;1.42;100.00;102480.98;105903;1257;59519;-55
2024/02/19 09:32:27;;;;;;;0.30;0.10;;;;;;;1.47;100.00;102480.93;106152;1257;73940;-57
2024/02/19 09:34:54;;;;;;;0.20;0.10;;;;;;;1.51;100.00;102482.14;106247;1257;66164;-55
2024/02/19 09:37:25;;;;;;;0.40;0.20;;;;;;;1.51;100.00;102477.54;106474;1257;71227;-54
2024/02/19 09:39:58;;;;;;;0.80;0.30;;;;;;;1.53;100.00;102479.71;106072;1259;59642;-54
2024/02/19 09:42:26;;;;;;;0.40;0.20;;;;;;;1.47;100.00;102478.64;108522;1255;61239;-56
2024/02/19 09:44:54;;;;;;;0.60;0.40;;;;;;;1.30;100.00;102460.04;106047;1258;72641;-55
2024/02/19 09:47:21;;;;;;;1.10;0.20;;;;;;;1.20;100.00;102452.45;106108;1253;67358;-58
2024/02/19 09:49:49;;;;;;;0.40;0.20;;;;;;;1.16;100.00;102449.68;106149;1259;70944;-58
2024/02/19 09:52:24;;;;;;;0.40;0.20;;;;;;;1.21;100.00;102451.25;106256;1258;59707;-57
2024/02/19 09:54:56;;;;;;;0.20;0.20;;;;;;;1.30;100.00;102463.40;108857;1253;59220;-57
2024/02/19 09:57:25;;;;;;;2.30;0.20;;;;;;;1.39;100.00;102459.63;106616;1256;73519;-58
2024/02/19 09:59:52;;;;;;;0.20;0.10;;;;;;;1.48;100.00;102461.49;106164;1261;67026;-57
2024/02/19 10:02:20;;;;;;;1.20;0.30;;;;;;;1.55;100.00;102467.73;105897;1262;73150;-56
2024/02/19 10:04:50;;;;;;;0.50;0.30;;;;;;;1.60;100.00;102472.15;105959;1259;59711;-58
2024/02/19 10:07:18;;;;;;;0.20;0.10;;;;;;;1.63;100.00;102473.63;109125;1254;59095;-56
2024/02/19 10:09:49;;;;;;;0.40;0.10;;;;;;;1.60;100.00;102461.35;106360;1254;73138;-57
2024/02/19 10:12:18;;;;;;;1.20;0.20;;;;;;;1.58;100.00;102462.71;106262;1257;65952;-57
2024/02/19 10:14:46;;;;;;;0.40;0.20;;;;;;;1.63;100.00;102458.61;109156;1256;72771;-56
2024/02/19 10:17:19;;;;;;;0.30;0.20;;;;;;;1.70;100.00;102458.46;109068;1257;59054;-55
2024/02/19 10:19:47;;;;;;;0.10;0.10;;;;;;;1.75;100.00;102464.31;108725;1256;60532;-56
2024/02/19 10:22:16;;;;;;;0.50;0.10;;;;;;;1.75;100.00;102461.45;106422;1259;72031;-56
2024/02/19 10:24:44;;;;;;;0.20;0.10;;;;;;;1.78;100.00;102460.52;107360;1258;67729;-54
2024/02/19 10:27:11;;;;;;;0.20;0.10;;;;;;;1.75;100.00;102460.58;106190;1259;72855;-56
2024/02/19 10:29:39;;;;;;;0.20;0.10;;;;;;;1.63;100.00;102446.41;106420;1256;59814;-57
2024/02/19 10:32:06;;;;;;;0.80;0.20;;;;;;;1.53;100.00;102438.84;106186;1258;59665;-55
2024/02/19 10:34:34;;;;;;;0.20;0.20;;;;;;;1.44;100.00;102421.55;106119;1273;73198;-58
2024/02/19 10:37:05;;;;;;;0.20;0.10;;;;;;;1.39;100.00;102419.83;106167;1266;65950;-56
2024/02/19 10:39:32;;;;;;;0.10;0.10;;;;;;;1.44;100.00;102421.20;106142;1256;70983;-55
2024/02/19 10:42:00;;;;;;;0.10;0.10;;;;;;;1.51;100.00;102417.36;106192;1259;60884;-56
2024/02/19 10:44:27;;;;;;;1.70;0.10;;;;;;;1.56;100.00;102415.55;106167;1260;60606;-57
2024/02/19 10:46:55;;;;;;;0.30;0.10;;;;;;;1.63;100.00;102417.52;106196;1254;72659;-56
2024/02/19 10:49:22;;;;;;;0.40;0.10;;;;;;;1.68;100.00;102414.86;106075;1258;68893;-56
2024/02/19 10:51:50;;;;;;;0.20;0.10;;;;;;;1.72;100.00;102422.95;106254;1258;71462;-57
2024/02/19 10:54:18;;;;;;;2.20;0.20;;;;;;;1.73;100.00;102423.34;106328;1259;60550;-58
2024/02/19 10:56:45;;;;;;;0.20;0.20;;;;;;;1.73;100.00;102429.17;106540;1259;60796;-56
2024/02/19 10:59:16;;;;;;;0.90;0.20;;;;;;;1.71;100.00;102425.39;106176;1260;72571;-57
2024/02/19 11:01:46;;;;;;;0.20;0.20;;;;;;;1.69;100.00;102414.74;106214;1258;66321;-58
2024/02/19 11:04:23;;;;;;;0.30;0.20;;;;;;;1.68;100.00;102416.30;106805;1259;72777;-55
2024/02/19 11:06:55;;;;;;;0.20;0.20;;;;;;;1.73;100.00;102427.59;107566;1258;60239;-55
2024/02/19 11:09:27;;;;;;;0.70;0.20;;;;;;;1.77;100.00;102422.23;106118;1267;60466;-58
2024/02/19 11:11:58;;;;;;;0.20;0.10;;;;;;;1.77;100.00;102421.17;106127;1259;74311;-59